createdAt,value
2018-04-26T00:02:27.402Z,10.82
2018-04-26T00:04:28.095Z,11.93
2018-04-26T00:08:28.866Z,11.37
2018-04-26T00:14:29.608Z,11.23
2018-04-26T00:18:30.399Z,10.98
2018-04-26T00:24:31.161Z,10.8
2018-04-26T00:30:32.287Z,11.15
2018-04-26T00:34:33.030Z,11.05
2018-04-26T00:40:33.748Z,12.4
2018-04-26T00:44:34.430Z,10.51
2018-04-26T00:46:35.137Z,11.91
2018-04-26T00:50:35.902Z,10.85
2018-04-26T00:56:36.600Z,11.99
2018-04-26T01:00:37.352Z,11.36
2018-04-26T01:06:38.035Z,11.81
2018-04-26T01:12:38.808Z,12.21
2018-04-26T01:16:39.553Z,11.98
2018-04-26T01:22:40.264Z,12.08
2018-04-26T01:26:42.070Z,11.15
2018-04-26T01:28:43.913Z,11.98
2018-04-26T01:32:44.823Z,11.98
2018-04-26T01:38:45.599Z,12.24
2018-04-26T01:42:46.359Z,12.08
2018-04-26T01:48:47.167Z,12.26
2018-04-26T01:52:47.937Z,12.34
2018-04-26T01:58:50.115Z,12.47
2018-04-26T01:58:50.257Z,12.28
2018-04-26T02:04:51.084Z,12.31
2018-04-26T02:08:51.777Z,11.6
2018-04-26T02:14:52.602Z,12.74
2018-04-26T02:20:53.349Z,12.87
2018-04-26T02:24:54.123Z,12.35
2018-04-26T02:30:55.014Z,12.85
2018-04-26T02:34:55.772Z,12.82
2018-04-26T02:36:56.494Z,12.41
2018-04-26T02:40:57.216Z,12.16
2018-04-26T02:46:57.942Z,12.9
2018-04-26T02:50:58.735Z,12.77
2018-04-26T02:56:59.519Z,12.92
2018-04-26T03:01:00.339Z,11.95
2018-04-26T03:03:01.069Z,13.21
2018-04-26T03:07:01.874Z,13.37
2018-04-26T03:13:02.627Z,13.1
2018-04-26T03:17:03.567Z,12.48
2018-04-26T03:23:04.334Z,12.52
2018-04-26T03:29:05.100Z,12.26
2018-04-26T03:33:05.866Z,12.73
2018-04-26T03:39:06.646Z,12.45
2018-04-26T03:43:07.431Z,11.94
2018-04-26T03:45:08.375Z,12.16
2018-04-26T03:49:09.061Z,12.75
2018-04-26T03:55:09.867Z,13.23
2018-04-26T03:59:10.625Z,12.26
2018-04-26T04:05:11.366Z,14.37
2018-04-26T04:11:12.073Z,12.7
2018-04-26T04:15:13.107Z,12.66
2018-04-26T04:21:13.835Z,12.6
2018-04-26T04:25:14.734Z,11.95
2018-04-26T04:27:15.516Z,12.73
2018-04-26T04:31:16.361Z,13.01
2018-04-26T04:37:17.169Z,13.01
2018-04-26T04:41:18.065Z,12.73
2018-04-26T04:47:18.723Z,13.85
2018-04-26T04:51:19.606Z,12.88
2018-04-26T04:53:20.493Z,13.85
2018-04-26T04:57:21.324Z,14.14
2018-04-26T05:03:22.138Z,13.71
2018-04-26T05:07:22.934Z,13.51
2018-04-26T05:13:23.640Z,14.53
2018-04-26T05:19:24.450Z,14.57
2018-04-26T05:23:25.298Z,14.05
2018-04-26T05:29:26.103Z,14.87
2018-04-26T05:33:26.934Z,14.8
2018-04-26T05:35:27.709Z,14.39
2018-04-26T05:39:28.396Z,15.99
2018-04-26T05:45:29.268Z,14.52
2018-04-26T05:49:30.172Z,14.49
2018-04-26T05:55:30.898Z,15.69
2018-04-26T05:59:31.775Z,15.22
2018-04-26T06:01:32.476Z,15.76
2018-04-26T06:05:33.180Z,15.35
2018-04-26T06:11:33.959Z,15.81
2018-04-26T06:15:34.764Z,15.58
2018-04-26T06:21:35.624Z,15.02
2018-04-26T06:27:36.536Z,16.76
2018-04-26T06:31:37.279Z,16.42
2018-04-26T06:37:38.094Z,17.28
2018-04-26T06:41:38.905Z,16.56
2018-04-26T06:43:39.712Z,18.75
2018-04-26T06:47:40.446Z,17.92
2018-04-26T06:53:41.366Z,17.94
2018-04-26T06:57:42.045Z,18.31
2018-04-26T07:03:42.889Z,18.05
2018-04-26T07:07:43.784Z,17.44
2018-04-26T07:09:44.440Z,16.8
2018-04-26T07:13:45.197Z,18.03
2018-04-26T07:19:51.538Z,17.77
2018-04-26T07:23:52.459Z,17.87
2018-04-26T07:29:53.386Z,17.54
2018-04-26T07:35:54.224Z,17.87
2018-04-26T07:39:54.967Z,16.87
2018-04-26T07:45:55.732Z,17.69
2018-04-26T07:49:56.540Z,17.43
2018-04-26T07:51:57.245Z,16.39
2018-04-26T07:55:58.125Z,16.44
2018-04-26T08:01:59.108Z,14.31
2018-04-26T08:06:00.257Z,14.15
2018-04-26T08:12:01.146Z,13.27
2018-04-26T08:16:02.025Z,12.79
2018-04-26T08:18:02.701Z,14.22
2018-04-26T08:22:03.473Z,13.71
2018-04-26T08:28:04.348Z,13.88
2018-04-26T08:32:05.162Z,12.4
2018-04-26T08:38:05.931Z,10.86
2018-04-26T08:44:06.757Z,8.23
2018-04-26T08:48:07.470Z,7.82
2018-04-26T08:54:08.315Z,8.44
2018-04-26T08:58:09.050Z,7.87
2018-04-26T09:00:10.156Z,7.63
2018-04-26T09:04:10.910Z,7.33
2018-04-26T09:10:11.787Z,7.37
2018-04-26T09:14:12.608Z,8.19
2018-04-26T09:20:13.321Z,7.7
2018-04-26T09:24:14.286Z,7.15
2018-04-26T09:26:15.015Z,8.61
2018-04-26T09:30:16.268Z,8.35
2018-04-26T09:36:16.929Z,8.71
2018-04-26T09:40:17.715Z,8.21
2018-04-26T09:46:18.584Z,7.83
2018-04-26T09:52:19.425Z,8.17
2018-04-26T09:56:20.183Z,7.25
2018-04-26T10:02:21.102Z,7.92
2018-04-26T10:06:21.929Z,7.38
2018-04-26T10:08:22.865Z,8.01
2018-04-26T10:12:23.693Z,6.89
2018-04-26T10:18:24.470Z,7.02
2018-04-26T10:22:25.317Z,7.24
2018-04-26T10:28:26.080Z,7.22
2018-04-26T10:34:27.012Z,6.91
2018-04-26T10:38:27.688Z,6.22
2018-04-26T10:44:28.540Z,7.62
2018-04-26T10:48:29.268Z,7.53
2018-04-26T10:54:30.196Z,7.5
2018-04-26T11:00:31.534Z,8.03
2018-04-26T11:04:32.370Z,7.79
2018-04-26T11:10:33.493Z,8.2
2018-04-26T11:14:34.306Z,7.99
2018-04-26T11:16:35.025Z,7.67
2018-04-26T11:20:35.969Z,8.06
2018-04-26T11:26:36.744Z,7.43
2018-04-26T11:30:37.684Z,7.6
2018-04-26T11:36:38.543Z,8.21
2018-04-26T11:42:39.551Z,7.57
2018-04-26T11:46:43.839Z,7.14
2018-04-26T11:52:44.714Z,7.6
2018-04-26T11:56:46.823Z,7.01
2018-04-26T12:02:47.967Z,6.72
2018-04-26T12:08:48.776Z,7.14
2018-04-26T12:12:49.491Z,6.3
2018-04-26T12:18:50.402Z,6.77
2018-04-26T12:22:51.330Z,6.29
2018-04-26T12:24:52.145Z,6.42
2018-04-26T12:28:53.045Z,6.22
2018-04-26T12:34:53.836Z,6.36
2018-04-26T12:38:54.832Z,6.45
2018-04-26T12:44:55.794Z,5.74
2018-04-26T12:50:56.647Z,6.47
2018-04-26T12:54:57.479Z,6.21
2018-04-26T13:00:58.266Z,6.36
2018-04-26T13:04:59.677Z,5.98
2018-04-26T13:11:00.543Z,6.16
2018-04-26T13:17:01.498Z,6.33
2018-04-26T13:21:02.242Z,6.24
2018-04-26T13:27:03.381Z,6.07
2018-04-26T13:31:04.273Z,5.5
2018-04-26T13:33:05.131Z,6.17
2018-04-26T13:37:05.888Z,5.68
2018-04-26T13:43:06.926Z,8.24
2018-04-26T13:47:07.822Z,13.74
2018-04-26T13:53:08.815Z,5.35
2018-04-26T13:59:09.888Z,5.58
2018-04-26T14:03:10.689Z,5.34
2018-04-26T14:09:11.645Z,6.74
2018-04-26T14:13:12.396Z,5.98
2018-04-26T14:15:13.795Z,6.42
2018-04-26T14:19:14.772Z,5.37
2018-04-26T14:25:15.698Z,5.82
2018-04-26T14:29:16.422Z,5.36
2018-04-26T14:35:17.365Z,5.7
2018-04-26T14:39:18.162Z,5.09
2018-04-26T14:41:18.886Z,5.79
2018-04-26T14:45:20.011Z,5.47
2018-04-26T14:51:20.909Z,6.11
2018-04-26T14:55:21.824Z,5.49
2018-04-26T15:01:22.754Z,5.37
2018-04-26T15:07:23.728Z,5.87
2018-04-26T15:11:24.466Z,5.7
2018-04-26T15:17:25.241Z,5.57
2018-04-26T15:21:26.025Z,5.12
2018-04-26T15:23:26.678Z,5.76
2018-04-26T15:27:27.656Z,5.3
2018-04-26T15:33:28.480Z,6.43
2018-04-26T15:37:29.302Z,5.71
2018-04-26T15:43:30.157Z,6.09
2018-04-26T15:49:31.094Z,6.1
2018-04-26T15:53:31.930Z,5.64
2018-04-26T15:59:32.897Z,5.9
2018-04-26T16:03:33.790Z,16.5
2018-04-26T16:09:34.552Z,6.16
2018-04-26T16:15:35.314Z,6.53
2018-04-26T16:19:36.115Z,6.61
2018-04-26T16:25:36.915Z,7.18
2018-04-26T16:29:37.643Z,5.87
2018-04-26T16:31:38.411Z,6.8
2018-04-26T16:35:39.341Z,6.75
2018-04-26T16:41:40.710Z,6.8
2018-04-26T16:45:41.470Z,6.83
2018-04-26T16:51:42.424Z,6.9
2018-04-26T16:57:43.181Z,8.11
2018-04-26T17:01:43.924Z,7.19
2018-04-26T17:07:44.774Z,8.31
2018-04-26T17:11:45.767Z,8.41
2018-04-26T17:13:46.521Z,8.5
2018-04-26T17:17:47.300Z,8.28
2018-04-26T17:23:48.051Z,9.9
2018-04-26T17:27:48.784Z,9.28
2018-04-26T17:33:49.497Z,9.99
2018-04-26T17:39:50.343Z,10.22
2018-04-26T17:43:51.085Z,9.92
2018-04-26T17:49:52.303Z,9.73
2018-04-26T17:53:53.000Z,10.5
2018-04-26T17:59:53.919Z,9.61
2018-04-26T18:05:54.788Z,9.29
2018-04-26T18:09:55.755Z,9.4
2018-04-26T18:15:56.501Z,10.09
2018-04-26T18:20:01.043Z,10.22
2018-04-26T18:21:58.499Z,10.03
2018-04-26T18:25:59.479Z,9.3
2018-04-26T18:32:00.421Z,11.13
2018-04-26T18:36:01.371Z,10.38
2018-04-26T18:42:02.027Z,10.56
2018-04-26T18:48:03.342Z,10.75
2018-04-26T18:52:04.750Z,10.58
2018-04-26T18:58:05.824Z,11.23
2018-04-26T19:02:07.599Z,10.76
2018-04-26T19:08:08.451Z,11.87
2018-04-26T19:14:09.367Z,13.02
2018-04-26T19:18:10.192Z,14.05
2018-04-26T19:24:10.991Z,12.64
2018-04-26T19:28:11.781Z,12.06
2018-04-26T19:30:12.802Z,12.96
2018-04-26T19:34:13.674Z,12.61
2018-04-26T19:40:14.622Z,12.21
2018-04-26T19:44:15.572Z,12.71
2018-04-26T19:50:16.230Z,13.38
2018-04-26T19:56:17.019Z,13.86
2018-04-26T20:00:18.111Z,13.61
2018-04-26T20:06:18.929Z,13.62
2018-04-26T20:10:19.577Z,13.04
2018-04-26T20:12:20.389Z,13.87
2018-04-26T20:16:21.044Z,13.02
2018-04-26T20:22:21.991Z,13.29
2018-04-26T20:26:22.754Z,12.44
2018-04-26T20:32:23.468Z,14.15
2018-04-26T20:36:24.304Z,14.31
2018-04-26T20:38:25.006Z,14
2018-04-26T20:42:25.816Z,13.04
2018-04-26T20:48:26.928Z,14.17
2018-04-26T20:52:27.767Z,14.52
2018-04-26T20:58:28.520Z,13.57
2018-04-26T21:04:29.317Z,13.8
2018-04-26T21:08:30.050Z,13.68
2018-04-26T21:14:30.816Z,15.27
2018-04-26T21:18:31.605Z,14.95
2018-04-26T21:20:32.439Z,14.49
2018-04-26T21:24:33.264Z,14.04
2018-04-26T21:30:34.045Z,15.29
2018-04-26T21:34:34.744Z,14.39
2018-04-26T21:40:35.467Z,14.34
2018-04-26T21:44:36.244Z,13.64
2018-04-26T21:46:36.921Z,15.45
2018-04-26T21:50:37.659Z,14.62
2018-04-26T21:56:38.391Z,15.41
2018-04-26T22:00:39.169Z,14.52
2018-04-26T22:06:39.868Z,14.04
2018-04-26T22:12:40.648Z,15.46
2018-04-26T22:16:41.435Z,14.57
2018-04-26T22:22:42.259Z,14.44
2018-04-26T22:26:42.967Z,13.64
2018-04-26T22:28:43.741Z,14.2
2018-04-26T22:32:44.655Z,13.76
2018-04-26T22:38:45.446Z,15.84
2018-04-26T22:42:46.305Z,14.64
2018-04-26T22:48:47.063Z,15.02
2018-04-26T22:54:47.852Z,14.63
2018-04-26T22:58:48.912Z,14.33
2018-04-26T23:04:49.807Z,15.67
2018-04-26T23:08:50.700Z,15.35
2018-04-26T23:14:51.508Z,15.64
2018-04-26T23:20:52.373Z,15.82
2018-04-26T23:24:53.013Z,14.69
2018-04-26T23:30:53.759Z,15.11
2018-04-26T23:34:54.492Z,15.04
2018-04-26T23:36:55.204Z,17.08
2018-04-26T23:40:56.150Z,17.15
2018-04-26T23:46:56.896Z,16.96
2018-04-26T23:50:57.540Z,16.37
2018-04-26T23:56:58.391Z,17.06
